| time (UTC) | temp F | wind direction | speed MPH | gust MPH | rain 1hr in | rain 24hr in | rain mn in | humidity % | barometer mb |
| 20260831045639 | 87 | 169 | 3.0 | 6.0 | 0.00 | 0.00 | 0.00 | 47 | 1012.7 |
| 20260831045134 | 87 | 167 | 3.0 | 6.0 | 0.00 | 0.00 | 0.00 | 47 | 1012.4 |
| 20260831044629 | 88 | 169 | 3.0 | 3.0 | 0.00 | 0.00 | 0.00 | 47 | 1012.4 |
| 20260831044124 | 88 | 176 | 4.0 | 5.0 | 0.00 | 0.00 | 0.00 | 47 | 1012.6 |
| 20260831043620 | 88 | 169 | 3.0 | 5.0 | 0.00 | 0.00 | 0.00 | 46 | 1012.6 |
| 20260831043114 | 88 | 167 | 3.0 | 5.0 | 0.00 | 0.00 | 0.00 | 46 | 1012.7 |
| 20260831042613 | 88 | 169 | 1.0 | 5.0 | 0.00 | 0.00 | 0.00 | 46 | 1012.6 |
| 20260831042103 | 88 | 167 | 3.0 | 5.0 | 0.00 | 0.00 | 0.00 | 46 | 1012.4 |
| 20260831041558 | 88 | 178 | 5.0 | 7.0 | 0.00 | 0.00 | 0.00 | 46 | 1012.8 |
| 20260831041057 | 89 | 166 | 2.0 | 5.0 | 0.00 | 0.00 | 0.00 | 45 | 1012.5 |
| 20260831040552 | 89 | 171 | 4.0 | 7.0 | 0.00 | 0.00 | 0.00 | 45 | 1012.7 |
| 20260831040051 | 89 | 167 | 3.0 | 5.0 | 0.00 | 0.00 | 0.00 | 45 | 1012.9 |
| 20260831035543 | 89 | 166 | 4.0 | 6.0 | 0.00 | 0.00 | 0.00 | 45 | 1012.7 |
| 20260831035039 | 89 | 162 | 3.0 | 6.0 | 0.00 | 0.00 | 0.00 | 45 | 1012.5 |
| 20260831034539 | 89 | 171 | 4.0 | 7.0 | 0.00 | 0.00 | 0.00 | 46 | 1012.6 |
| 20260831034034 | 89 | 161 | 3.0 | 6.0 | 0.00 | 0.00 | 0.00 | 46 | 1012.6 |
| 20260831033530 | 89 | 162 | 3.0 | 5.0 | 0.00 | 0.00 | 0.00 | 46 | 1012.5 |
| 20260831033025 | 89 | 164 | 3.0 | 6.0 | 0.00 | 0.00 | 0.00 | 47 | 1012.5 |
| 20260831032524 | 89 | 168 | 2.0 | 3.0 | 0.00 | 0.00 | 0.00 | 46 | 1012.7 |
| 20260831032020 | 89 | 172 | 3.0 | 9.0 | 0.00 | 0.00 | 0.00 | 47 | 1012.7 |
| 20260831031520 | 89 | 168 | 7.0 | 10.0 | 0.00 | 0.00 | 0.00 | 46 | 1012.5 |
| 20260831031019 | 89 | 176 | 3.0 | 7.0 | 0.00 | 0.00 | 0.00 | 47 | 1012.5 |
| 20260831030518 | 89 | 172 | 6.0 | 9.0 | 0.00 | 0.00 | 0.00 | 47 | 1012.6 |
| 20260831030017 | 89 | 166 | 3.0 | 5.0 | 0.00 | 0.00 | 0.00 | 47 | 1012.6 |
| 20260831025515 | 89 | 165 | 5.0 | 6.0 | 0.00 | 0.00 | 0.00 | 47 | 1012.7 |
| 20260831025011 | 89 | 169 | 3.0 | 6.0 | 0.00 | 0.00 | 0.00 | 48 | 1012.6 |
| 20260831024501 | 89 | 170 | 3.0 | 7.0 | 0.00 | 0.00 | 0.00 | 48 | 1012.6 |
| 20260831024000 | 89 | 169 | 4.0 | 7.0 | 0.00 | 0.00 | 0.00 | 48 | 1012.6 |
| 20260831023458 | 89 | 165 | 1.0 | 3.0 | 0.00 | 0.00 | 0.00 | 49 | 1012.5 |
| 20260831022953 | 89 | 166 | 2.0 | 3.0 | 0.00 | 0.00 | 0.00 | 49 | 1012.4 |
| 20260831022452 | 89 | 162 | 5.0 | 7.0 | 0.00 | 0.00 | 0.00 | 47 | 1012.2 |
| 20260831021948 | 89 | 166 | 3.0 | 7.0 | 0.00 | 0.00 | 0.00 | 48 | 1012.2 |
| 20260831021447 | 89 | 165 | 2.0 | 3.0 | 0.00 | 0.00 | 0.00 | 49 | 1012.4 |
| 20260831020943 | 89 | 165 | 3.0 | 5.0 | 0.00 | 0.00 | 0.00 | 49 | 1012.1 |
| 20260831020443 | 89 | 162 | 2.0 | 5.0 | 0.00 | 0.00 | 0.00 | 50 | 1012.3 |
| 20260831015937 | 89 | 165 | 1.0 | 3.0 | 0.00 | 0.00 | 0.00 | 51 | 1012.1 |
| 20260831015434 | 89 | 169 | 4.0 | 5.0 | 0.00 | 0.00 | 0.00 | 50 | 1011.9 |
| 20260831014928 | 89 | 165 | 1.0 | 2.0 | 0.00 | 0.00 | 0.00 | 52 | 1012.0 |
| 20260831014423 | 89 | 165 | 2.0 | 2.0 | 0.00 | 0.00 | 0.00 | 51 | 1012.1 |
| 20260831013919 | 89 | 166 | 1.0 | 2.0 | 0.00 | 0.00 | 0.00 | 51 | 1011.7 |
| 20260831013414 | 89 | 166 | 1.0 | 2.0 | 0.00 | 0.00 | 0.00 | 52 | 1011.7 |
| 20260831012908 | 90 | 166 | 1.0 | 2.0 | 0.00 | 0.00 | 0.00 | 49 | 1011.9 |
| 20260831012403 | 90 | 165 | 2.0 | 3.0 | 0.00 | 0.00 | 0.00 | 49 | 1011.5 |
| 20260831011858 | 90 | 165 | 2.0 | 2.0 | 0.00 | 0.00 | 0.00 | 49 | 1011.7 |
| 20260831011352 | 90 | 165 | 2.0 | 2.0 | 0.00 | 0.00 | 0.00 | 49 | 1011.5 |
| 20260831010843 | 90 | 165 | 1.0 | 3.0 | 0.00 | 0.00 | 0.00 | 49 | 1011.5 |
| 20260831010342 | 90 | 165 | 0.0 | 1.0 | 0.00 | 0.00 | 0.00 | 48 | 1011.5 |
| 20260831005838 | 90 | 165 | 1.0 | 1.0 | 0.00 | 0.00 | 0.00 | 49 | 1011.4 |
| 20260831005333 | 90 | 165 | 0.0 | 1.0 | 0.00 | 0.00 | 0.00 | 47 | 1011.5 |
| 20260831004828 | 91 | 164 | 0.0 | 1.0 | 0.00 | 0.00 | 0.00 | 46 | 1011.3 |
| 20260831004324 | 91 | 165 | 0.0 | 0.0 | 0.00 | 0.00 | 0.00 | 45 | 1011.6 |
| 20260831003820 | 93 | 165 | 0.0 | 2.0 | 0.00 | 0.00 | 0.00 | 44 | 1011.4 |
| 20260831003316 | 93 | 165 | 2.0 | 3.0 | 0.00 | 0.00 | 0.00 | 41 | 1011.1 |
| 20260831002815 | 94 | 165 | 1.0 | 2.0 | 0.00 | 0.00 | 0.00 | 42 | 1011.2 |
| 20260831002309 | 95 | 165 | 2.0 | 3.0 | 0.00 | 0.00 | 0.00 | 41 | 1011.1 |
| 20260831001805 | 95 | 166 | 0.0 | 3.0 | 0.00 | 0.00 | 0.00 | 41 | 1011.2 |
| 20260831001259 | 95 | 164 | 2.0 | 3.0 | 0.00 | 0.00 | 0.00 | 39 | 1010.9 |
| 20260831000757 | 95 | 164 | 3.0 | 6.0 | 0.00 | 0.00 | 0.00 | 38 | 1011.0 |
| 20260831000256 | 96 | 167 | 3.0 | 5.0 | 0.00 | 0.00 | 0.00 | 39 | 1011.0 |
| 20260830235755 | 96 | 164 | 3.0 | 5.0 | 0.00 | 0.00 | 0.00 | 38 | 1010.8 |
| 20260830235249 | 96 | 163 | 2.0 | 3.0 | 0.00 | 0.00 | 0.00 | 39 | 1011.0 |
| 20260830234739 | 96 | 165 | 4.0 | 5.0 | 0.00 | 0.00 | 0.00 | 37 | 1011.0 |
| 20260830234235 | 96 | 162 | 4.0 | 5.0 | 0.00 | 0.00 | 0.00 | 38 | 1011.1 |
| 20260830233731 | 96 | 164 | 3.0 | 5.0 | 0.00 | 0.00 | 0.00 | 38 | 1011.0 |
| 20260830233226 | 97 | 165 | 2.0 | 5.0 | 0.00 | 0.00 | 0.00 | 38 | 1011.1 |
| 20260830232721 | 97 | 164 | 3.0 | 3.0 | 0.00 | 0.00 | 0.00 | 38 | 1011.0 |
| 20260830232217 | 97 | 164 | 5.0 | 6.0 | 0.00 | 0.00 | 0.00 | 39 | 1011.0 |
| 20260830231713 | 98 | 168 | 4.0 | 6.0 | 0.00 | 0.00 | 0.00 | 38 | 1011.1 |
| 20260830231213 | 97 | 162 | 4.0 | 8.0 | 0.00 | 0.00 | 0.00 | 37 | 1010.9 |
| 20260830230708 | 97 | 160 | 3.0 | 5.0 | 0.00 | 0.00 | 0.00 | 38 | 1010.8 |
| 20260830230203 | 98 | 164 | 2.0 | 5.0 | 0.00 | 0.00 | 0.00 | 37 | 1011.0 |
| 20260830225657 | 98 | 165 | 4.0 | 8.0 | 0.00 | 0.00 | 0.00 | 37 | 1010.7 |
| 20260830225152 | 98 | 152 | 5.0 | 7.0 | 0.00 | 0.00 | 0.00 | 36 | 1010.9 |
| 20260830224651 | 98 | 140 | 3.0 | 8.0 | 0.00 | 0.00 | 0.00 | 37 | 1011.0 |
| 20260830224147 | 98 | 168 | 3.0 | 6.0 | 0.00 | 0.00 | 0.00 | 37 | 1010.9 |
| 20260830223644 | 98 | 167 | 4.0 | 9.0 | 0.00 | 0.00 | 0.00 | 37 | 1011.0 |
| 20260830223144 | 98 | 165 | 5.0 | 7.0 | 0.00 | 0.00 | 0.00 | 36 | 1011.0 |
| 20260830222638 | 98 | 156 | 4.0 | 10.0 | 0.00 | 0.00 | 0.00 | 37 | 1011.1 |
| 20260830222134 | 98 | 170 | 4.0 | 7.0 | 0.00 | 0.00 | 0.00 | 37 | 1011.0 |
| 20260830221629 | 98 | 160 | 2.0 | 6.0 | 0.00 | 0.00 | 0.00 | 37 | 1011.0 |
| 20260830221120 | 98 | 163 | 2.0 | 8.0 | 0.00 | 0.00 | 0.00 | 38 | 1010.8 |
| 20260830220615 | 98 | 164 | 2.0 | 9.0 | 0.00 | 0.00 | 0.00 | 38 | 1010.7 |
| 20260830220108 | 98 | 162 | 3.0 | 6.0 | 0.00 | 0.00 | 0.00 | 38 | 1011.2 |
| 20260830215607 | 98 | 172 | 6.0 | 8.0 | 0.00 | 0.00 | 0.00 | 38 | 1011.0 |
| 20260830215102 | 98 | 181 | 6.0 | 14.0 | 0.00 | 0.00 | 0.00 | 37 | 1011.2 |
| 20260830214557 | 98 | 167 | 7.0 | 11.0 | 0.00 | 0.00 | 0.00 | 38 | 1010.9 |
| 20260830214051 | 98 | 160 | 3.0 | 7.0 | 0.00 | 0.00 | 0.00 | 39 | 1011.1 |
| 20260830213546 | 98 | 165 | 4.0 | 9.0 | 0.00 | 0.00 | 0.00 | 40 | 1011.3 |
| 20260830213041 | 98 | 178 | 5.0 | 8.0 | 0.00 | 0.00 | 0.00 | 40 | 1011.3 |
| 20260830212537 | 98 | 171 | 5.0 | 16.0 | 0.00 | 0.00 | 0.00 | 40 | 1011.3 |
| 20260830212032 | 98 | 198 | 6.0 | 8.0 | 0.00 | 0.00 | 0.00 | 41 | 1011.5 |
| 20260830211527 | 97 | 158 | 9.0 | 21.0 | 0.00 | 0.00 | 0.00 | 40 | 1011.5 |
| 20260830211026 | 98 | 161 | 4.0 | 6.0 | 0.00 | 0.00 | 0.00 | 41 | 1011.3 |
| 20260830210521 | 98 | 173 | 6.0 | 7.0 | 0.00 | 0.00 | 0.00 | 41 | 1011.5 |
| 20260830210021 | 97 | 168 | 3.0 | 11.0 | 0.00 | 0.00 | 0.00 | 42 | 1011.4 |
| 20260830205518 | 97 | 175 | 6.0 | 9.0 | 0.00 | 0.00 | 0.00 | 42 | 1011.5 |
| 20260830205014 | 97 | 179 | 4.0 | 6.0 | 0.00 | 0.00 | 0.00 | 42 | 1011.6 |
| 20260830204513 | 98 | 169 | 3.0 | 6.0 | 0.00 | 0.00 | 0.00 | 43 | 1011.7 |
| 20260830204013 | 97 | 165 | 2.0 | 9.0 | 0.00 | 0.00 | 0.00 | 41 | 1011.6 |
| 20260830203509 | 98 | 168 | 3.0 | 5.0 | 0.00 | 0.00 | 0.00 | 42 | 1011.9 |
| 20260830203004 | 97 | 174 | 5.0 | 6.0 | 0.00 | 0.00 | 0.00 | 42 | 1012.0 |
| 20260830202458 | 97 | 161 | 7.0 | 8.0 | 0.00 | 0.00 | 0.00 | 42 | 1012.0 |
| 20260830201954 | 97 | 212 | 4.0 | 9.0 | 0.00 | 0.00 | 0.00 | 42 | 1012.1 |
| 20260830201453 | 97 | 181 | 4.0 | 7.0 | 0.00 | 0.00 | 0.00 | 42 | 1012.1 |
| 20260830200949 | 96 | 168 | 3.0 | 8.0 | 0.00 | 0.00 | 0.00 | 42 | 1012.2 |
| 20260830200449 | 96 | 169 | 4.0 | 11.0 | 0.00 | 0.00 | 0.00 | 43 | 1012.2 |
| 20260830195948 | 96 | 168 | 6.0 | 11.0 | 0.00 | 0.00 | 0.00 | 42 | 1012.2 |
| 20260830195444 | 96 | 178 | 5.0 | 8.0 | 0.00 | 0.00 | 0.00 | 42 | 1012.3 |
| 20260830194942 | 96 | 161 | 5.0 | 9.0 | 0.00 | 0.00 | 0.00 | 43 | 1012.6 |
| 20260830194441 | 97 | 171 | 4.0 | 13.0 | 0.00 | 0.00 | 0.00 | 42 | 1012.9 |
| 20260830193936 | 96 | 169 | 2.0 | 6.0 | 0.00 | 0.00 | 0.00 | 44 | 1012.6 |
| 20260830193435 | 96 | 172 | 3.0 | 8.0 | 0.00 | 0.00 | 0.00 | 43 | 1012.7 |
| 20260830192930 | 96 | 183 | 7.0 | 13.0 | 0.00 | 0.00 | 0.00 | 43 | 1012.8 |
| 20260830192425 | 96 | 171 | 5.0 | 7.0 | 0.00 | 0.00 | 0.00 | 43 | 1012.8 |
| 20260830191920 | 95 | 185 | 4.0 | 7.0 | 0.00 | 0.00 | 0.00 | 43 | 1012.8 |
| 20260830191415 | 95 | 161 | 1.0 | 7.0 | 0.00 | 0.00 | 0.00 | 45 | 1012.8 |
| 20260830190911 | 94 | 189 | 5.0 | 11.0 | 0.00 | 0.00 | 0.00 | 45 | 1012.8 |
| 20260830190406 | 94 | 171 | 3.0 | 6.0 | 0.00 | 0.00 | 0.00 | 46 | 1012.8 |
| 20260830185905 | 94 | 170 | 2.0 | 6.0 | 0.00 | 0.00 | 0.00 | 46 | 1012.9 |
| 20260830185400 | 93 | 175 | 2.0 | 8.0 | 0.00 | 0.00 | 0.00 | 46 | 1013.0 |
| 20260830184855 | 93 | 186 | 3.0 | 7.0 | 0.00 | 0.00 | 0.00 | 47 | 1013.0 |
| 20260830184354 | 93 | 161 | 5.0 | 7.0 | 0.00 | 0.00 | 0.00 | 47 | 1013.2 |
| 20260830183848 | 93 | 170 | 4.0 | 6.0 | 0.00 | 0.00 | 0.00 | 47 | 1013.0 |
| 20260830183343 | 92 | 183 | 2.0 | 5.0 | 0.00 | 0.00 | 0.00 | 46 | 1013.2 |
| 20260830182838 | 92 | 178 | 3.0 | 5.0 | 0.00 | 0.00 | 0.00 | 47 | 1013.2 |
| 20260830182334 | 92 | 161 | 3.0 | 5.0 | 0.00 | 0.00 | 0.00 | 47 | 1013.4 |
| 20260830181830 | 93 | 180 | 3.0 | 6.0 | 0.00 | 0.00 | 0.00 | 47 | 1013.4 |
| 20260830181325 | 92 | 181 | 2.0 | 6.0 | 0.00 | 0.00 | 0.00 | 46 | 1013.4 |
| 20260830180824 | 91 | 162 | 2.0 | 6.0 | 0.00 | 0.00 | 0.00 | 47 | 1013.3 |
| 20260830180319 | 91 | 167 | 2.0 | 7.0 | 0.00 | 0.00 | 0.00 | 47 | 1013.6 |
| 20260830175818 | 91 | 166 | 4.0 | 15.0 | 0.00 | 0.00 | 0.00 | 48 | 1013.5 |
| 20260830175313 | 91 | 187 | 6.0 | 10.0 | 0.00 | 0.00 | 0.00 | 47 | 1013.5 |
| 20260830174808 | 91 | 172 | 5.0 | 8.0 | 0.00 | 0.00 | 0.00 | 48 | 1013.6 |
| 20260830174303 | 91 | 190 | 6.0 | 8.0 | 0.00 | 0.00 | 0.00 | 48 | 1013.4 |
| 20260830173758 | 90 | 170 | 3.0 | 8.0 | 0.00 | 0.00 | 0.00 | 48 | 1013.7 |
| 20260830173253 | 90 | 180 | 3.0 | 8.0 | 0.00 | 0.00 | 0.00 | 48 | 1013.4 |
| 20260830172750 | 90 | 181 | 2.0 | 8.0 | 0.00 | 0.00 | 0.00 | 49 | 1013.6 |
| 20260830172246 | 90 | 171 | 3.0 | 8.0 | 0.00 | 0.00 | 0.00 | 50 | 1013.7 |
| 20260830171741 | 90 | 173 | 3.0 | 9.0 | 0.00 | 0.00 | 0.00 | 50 | 1013.9 |
| 20260830171236 | 90 | 170 | 3.0 | 5.0 | 0.00 | 0.00 | 0.00 | 51 | 1013.5 |
| 20260830170731 | 89 | 180 | 7.0 | 9.0 | 0.00 | 0.00 | 0.00 | 50 | 1013.8 |
| 20260830170231 | 89 | 160 | 3.0 | 7.0 | 0.00 | 0.00 | 0.00 | 52 | 1013.7 |
| 20260830165730 | 89 | 164 | 3.0 | 7.0 | 0.00 | 0.00 | 0.00 | 51 | 1013.9 |
| 20260830165226 | 89 | 162 | 3.0 | 7.0 | 0.00 | 0.00 | 0.00 | 51 | 1014.0 |
| 20260830164722 | 88 | 171 | 3.0 | 6.0 | 0.00 | 0.00 | 0.00 | 51 | 1014.0 |
| 20260830164217 | 88 | 169 | 6.0 | 8.0 | 0.00 | 0.00 | 0.00 | 52 | 1014.1 |
| 20260830163714 | 88 | 177 | 3.0 | 9.0 | 0.00 | 0.00 | 0.00 | 52 | 1014.2 |
| 20260830163209 | 88 | 171 | 1.0 | 7.0 | 0.00 | 0.00 | 0.00 | 53 | 1014.0 |
| 20260830162704 | 87 | 162 | 3.0 | 6.0 | 0.00 | 0.00 | 0.00 | 53 | 1014.0 |
| 20260830162200 | 88 | 172 | 4.0 | 5.0 | 0.00 | 0.00 | 0.00 | 54 | 1014.1 |
| 20260830161655 | 87 | 169 | 1.0 | 5.0 | 0.00 | 0.00 | 0.00 | 54 | 1014.1 |
| 20260830161149 | 86 | 166 | 3.0 | 9.0 | 0.00 | 0.00 | 0.00 | 55 | 1014.1 |
| 20260830160645 | 86 | 176 | 4.0 | 8.0 | 0.00 | 0.00 | 0.00 | 54 | 1014.0 |
| 20260830160139 | 86 | 178 | 2.0 | 5.0 | 0.00 | 0.00 | 0.00 | 54 | 1014.3 |
| 20260830155636 | 86 | 174 | 5.0 | 7.0 | 0.00 | 0.00 | 0.00 | 54 | 1014.2 |
| 20260830155132 | 86 | 169 | 3.0 | 5.0 | 0.00 | 0.00 | 0.00 | 55 | 1013.9 |
| 20260830154626 | 85 | 159 | 2.0 | 5.0 | 0.00 | 0.00 | 0.00 | 56 | 1014.1 |
| 20260830154123 | 85 | 162 | 3.0 | 6.0 | 0.00 | 0.00 | 0.00 | 57 | 1013.9 |
| 20260830153619 | 84 | 168 | 2.0 | 5.0 | 0.00 | 0.00 | 0.00 | 57 | 1014.0 |
| 20260830153119 | 84 | 170 | 5.0 | 7.0 | 0.00 | 0.00 | 0.00 | 58 | 1014.1 |
| 20260830152618 | 84 | 162 | 3.0 | 5.0 | 0.00 | 0.00 | 0.00 | 58 | 1013.9 |
| 20260830152116 | 83 | 162 | 1.0 | 6.0 | 0.00 | 0.00 | 0.00 | 58 | 1014.1 |
| 20260830151612 | 83 | 161 | 3.0 | 7.0 | 0.00 | 0.00 | 0.00 | 58 | 1013.8 |
| 20260830151106 | 82 | 171 | 3.0 | 9.0 | 0.00 | 0.00 | 0.00 | 59 | 1013.9 |
| 20260830150601 | 82 | 186 | 1.0 | 7.0 | 0.00 | 0.00 | 0.00 | 60 | 1013.9 |
| 20260830150055 | 81 | 146 | 4.0 | 6.0 | 0.00 | 0.00 | 0.00 | 60 | 1013.8 |
| 20260830145549 | 81 | 161 | 2.0 | 3.0 | 0.00 | 0.00 | 0.00 | 60 | 1013.8 |
| 20260830145045 | 80 | 161 | 3.0 | 5.0 | 0.00 | 0.00 | 0.00 | 62 | 1013.8 |
| 20260830144541 | 80 | 161 | 2.0 | 3.0 | 0.00 | 0.00 | 0.00 | 62 | 1013.9 |
| 20260830144036 | 80 | 170 | 3.0 | 6.0 | 0.00 | 0.00 | 0.00 | 62 | 1013.8 |
| 20260830143532 | 80 | 169 | 2.0 | 3.0 | 0.00 | 0.00 | 0.00 | 62 | 1014.0 |
| 20260830143030 | 80 | 162 | 3.0 | 6.0 | 0.00 | 0.00 | 0.00 | 62 | 1013.8 |
| 20260830142526 | 81 | 178 | 4.0 | 6.0 | 0.00 | 0.00 | 0.00 | 61 | 1014.1 |
| 20260830142021 | 80 | 199 | 2.0 | 6.0 | 0.00 | 0.00 | 0.00 | 61 | 1013.8 |
| 20260830141515 | 80 | 256 | 3.0 | 8.0 | 0.00 | 0.00 | 0.00 | 60 | 1014.1 |
| 20260830141010 | 80 | 167 | 2.0 | 3.0 | 0.00 | 0.00 | 0.00 | 61 | 1013.7 |
| 20260830140510 | 80 | 178 | 3.0 | 8.0 | 0.00 | 0.00 | 0.00 | 61 | 1014.0 |
| 20260830140005 | 80 | 165 | 5.0 | 9.0 | 0.00 | 0.00 | 0.00 | 60 | 1014.0 |
| 20260830135500 | 79 | 173 | 3.0 | 5.0 | 0.00 | 0.00 | 0.00 | 62 | 1013.9 |
| 20260830134955 | 79 | 174 | 2.0 | 5.0 | 0.00 | 0.00 | 0.00 | 63 | 1013.9 |
| 20260830134451 | 79 | 172 | 3.0 | 10.0 | 0.00 | 0.00 | 0.00 | 62 | 1013.9 |
| 20260830133946 | 78 | 169 | 4.0 | 7.0 | 0.00 | 0.00 | 0.00 | 62 | 1014.0 |
| 20260830133442 | 78 | 169 | 1.0 | 6.0 | 0.00 | 0.00 | 0.00 | 63 | 1014.2 |
| 20260830132937 | 78 | 168 | 4.0 | 5.0 | 0.00 | 0.00 | 0.00 | 64 | 1014.0 |
| 20260830132433 | 77 | 171 | 4.0 | 6.0 | 0.00 | 0.00 | 0.00 | 64 | 1014.4 |
| 20260830131932 | 77 | 167 | 2.0 | 6.0 | 0.00 | 0.00 | 0.00 | 65 | 1014.0 |
| 20260830131432 | 77 | 168 | 1.0 | 5.0 | 0.00 | 0.00 | 0.00 | 65 | 1014.0 |
| 20260830130926 | 77 | 172 | 2.0 | 3.0 | 0.00 | 0.00 | 0.00 | 65 | 1014.2 |
| 20260830130422 | 76 | 169 | 1.0 | 3.0 | 0.00 | 0.00 | 0.00 | 65 | 1014.1 |
| 20260830125921 | 76 | 169 | 2.0 | 5.0 | 0.00 | 0.00 | 0.00 | 66 | 1014.3 |
| 20260830125417 | 76 | 169 | 1.0 | 5.0 | 0.00 | 0.00 | 0.00 | 66 | 1014.2 |
| 20260830124914 | 76 | 167 | 3.0 | 5.0 | 0.00 | 0.00 | 0.00 | 66 | 1014.3 |
| 20260830124410 | 76 | 169 | 1.0 | 3.0 | 0.00 | 0.00 | 0.00 | 67 | 1014.4 |
| 20260830123906 | 76 | 170 | 3.0 | 5.0 | 0.00 | 0.00 | 0.00 | 66 | 1014.4 |
| 20260830123403 | 76 | 170 | 2.0 | 3.0 | 0.00 | 0.00 | 0.00 | 67 | 1014.5 |
| 20260830122900 | 76 | 170 | 3.0 | 5.0 | 0.00 | 0.00 | 0.00 | 67 | 1014.6 |
| 20260830122354 | 76 | 171 | 1.0 | 3.0 | 0.00 | 0.00 | 0.00 | 67 | 1014.3 |
| 20260830121850 | 76 | 171 | 2.0 | 3.0 | 0.00 | 0.00 | 0.00 | 66 | 1014.5 |
| 20260830121350 | 76 | 171 | 2.0 | 3.0 | 0.00 | 0.00 | 0.00 | 66 | 1014.6 |
| 20260830120845 | 76 | 171 | 2.0 | 3.0 | 0.00 | 0.00 | 0.00 | 66 | 1014.4 |
| 20260830120340 | 77 | 171 | 1.0 | 2.0 | 0.00 | 0.00 | 0.00 | 66 | 1014.6 |
| 20260830115836 | 77 | 171 | 0.0 | 2.0 | 0.00 | 0.00 | 0.00 | 65 | 1014.5 |
| 20260830115333 | 77 | 171 | 2.0 | 3.0 | 0.00 | 0.00 | 0.00 | 65 | 1014.4 |
| 20260830114828 | 77 | 171 | 1.0 | 2.0 | 0.00 | 0.00 | 0.00 | 65 | 1014.1 |
| 20260830114324 | 77 | 171 | 3.0 | 5.0 | 0.00 | 0.00 | 0.00 | 64 | 1014.3 |
| 20260830113819 | 77 | 170 | 2.0 | 3.0 | 0.00 | 0.00 | 0.00 | 64 | 1014.3 |
| 20260830113314 | 77 | 170 | 3.0 | 5.0 | 0.00 | 0.00 | 0.00 | 63 | 1014.0 |
| 20260830112810 | 78 | 171 | 2.0 | 3.0 | 0.00 | 0.00 | 0.00 | 63 | 1014.1 |
| 20260830112306 | 78 | 171 | 0.0 | 3.0 | 0.00 | 0.00 | 0.00 | 62 | 1014.2 |
| 20260830111801 | 78 | 172 | 2.0 | 6.0 | 0.00 | 0.00 | 0.00 | 62 | 1014.1 |
| 20260830111257 | 78 | 171 | 2.0 | 3.0 | 0.00 | 0.00 | 0.00 | 62 | 1014.2 |
| 20260830110756 | 78 | 171 | 2.0 | 5.0 | 0.00 | 0.00 | 0.00 | 62 | 1014.1 |
| 20260830110253 | 78 | 173 | 3.0 | 5.0 | 0.00 | 0.00 | 0.00 | 62 | 1014.0 |
| 20260830105752 | 78 | 173 | 2.0 | 3.0 | 0.00 | 0.00 | 0.00 | 61 | 1014.2 |
| 20260830105248 | 79 | 176 | 1.0 | 5.0 | 0.00 | 0.00 | 0.00 | 61 | 1014.3 |
| 20260830104744 | 78 | 177 | 3.0 | 3.0 | 0.00 | 0.00 | 0.00 | 62 | 1014.2 |
| 20260830104241 | 78 | 178 | 2.0 | 5.0 | 0.00 | 0.00 | 0.00 | 61 | 1014.0 |
| 20260830103740 | 78 | 186 | 1.0 | 5.0 | 0.00 | 0.00 | 0.00 | 61 | 1014.0 |
| 20260830103236 | 78 | 173 | 3.0 | 5.0 | 0.00 | 0.00 | 0.00 | 61 | 1014.1 |
| 20260830102733 | 78 | 172 | 4.0 | 6.0 | 0.00 | 0.00 | 0.00 | 62 | 1014.1 |
| 20260830102230 | 78 | 169 | 2.0 | 3.0 | 0.00 | 0.00 | 0.00 | 62 | 1014.0 |
| 20260830101726 | 78 | 167 | 3.0 | 3.0 | 0.00 | 0.00 | 0.00 | 63 | 1014.0 |
| 20260830101221 | 78 | 167 | 2.0 | 3.0 | 0.00 | 0.00 | 0.00 | 63 | 1013.9 |
| 20260830100714 | 78 | 169 | 3.0 | 9.0 | 0.00 | 0.00 | 0.00 | 63 | 1013.9 |
| 20260830100209 | 78 | 170 | 3.0 | 5.0 | 0.00 | 0.00 | 0.00 | 63 | 1013.7 |
| 20260830095708 | 78 | 181 | 3.0 | 7.0 | 0.00 | 0.00 | 0.00 | 63 | 1013.9 |
| 20260830095204 | 78 | 171 | 3.0 | 7.0 | 0.00 | 0.00 | 0.00 | 63 | 1013.9 |
| 20260830094700 | 78 | 171 | 1.0 | 6.0 | 0.00 | 0.00 | 0.00 | 63 | 1013.9 |
| 20260830094155 | 78 | 161 | 2.0 | 8.0 | 0.00 | 0.00 | 0.00 | 63 | 1013.9 |
| 20260830093650 | 78 | 168 | 3.0 | 3.0 | 0.00 | 0.00 | 0.00 | 63 | 1013.9 |
| 20260830093147 | 78 | 166 | 2.0 | 6.0 | 0.00 | 0.00 | 0.00 | 63 | 1014.0 |
| 20260830092646 | 78 | 170 | 2.0 | 6.0 | 0.00 | 0.00 | 0.00 | 63 | 1013.9 |
| 20260830092144 | 78 | 169 | 1.0 | 3.0 | 0.00 | 0.00 | 0.00 | 64 | 1013.9 |
| 20260830091643 | 78 | 169 | 4.0 | 5.0 | 0.00 | 0.00 | 0.00 | 63 | 1013.9 |
| 20260830091142 | 78 | 174 | 3.0 | 5.0 | 0.00 | 0.00 | 0.00 | 63 | 1013.7 |
| 20260830090638 | 78 | 167 | 1.0 | 6.0 | 0.00 | 0.00 | 0.00 | 63 | 1013.9 |
| 20260830090133 | 78 | 169 | 3.0 | 3.0 | 0.00 | 0.00 | 0.00 | 62 | 1013.9 |
| 20260830085632 | 79 | 171 | 3.0 | 5.0 | 0.00 | 0.00 | 0.00 | 62 | 1014.2 |
| 20260830085128 | 79 | 168 | 2.0 | 5.0 | 0.00 | 0.00 | 0.00 | 62 | 1014.0 |
| 20260830084624 | 79 | 166 | 2.0 | 6.0 | 0.00 | 0.00 | 0.00 | 62 | 1013.9 |
| 20260830084119 | 79 | 171 | 2.0 | 5.0 | 0.00 | 0.00 | 0.00 | 61 | 1013.8 |
| 20260830083615 | 79 | 171 | 2.0 | 7.0 | 0.00 | 0.00 | 0.00 | 61 | 1013.6 |
| 20260830083114 | 79 | 172 | 1.0 | 6.0 | 0.00 | 0.00 | 0.00 | 61 | 1013.8 |
| 20260830082609 | 79 | 175 | 3.0 | 6.0 | 0.00 | 0.00 | 0.00 | 61 | 1013.6 |
| 20260830082105 | 80 | 167 | 4.0 | 6.0 | 0.00 | 0.00 | 0.00 | 60 | 1013.8 |
| 20260830081601 | 80 | 173 | 3.0 | 5.0 | 0.00 | 0.00 | 0.00 | 61 | 1013.7 |
| 20260830081059 | 80 | 170 | 1.0 | 5.0 | 0.00 | 0.00 | 0.00 | 60 | 1013.8 |
| 20260830080554 | 80 | 171 | 3.0 | 6.0 | 0.00 | 0.00 | 0.00 | 60 | 1013.9 |
| 20260830080050 | 80 | 178 | 3.0 | 9.0 | 0.00 | 0.00 | 0.00 | 60 | 1013.5 |
| 20260830075544 | 80 | 171 | 5.0 | 7.0 | 0.00 | 0.00 | 0.00 | 61 | 1013.7 |
| 20260830075039 | 80 | 167 | 3.0 | 5.0 | 0.00 | 0.00 | 0.00 | 61 | 1013.5 |
| 20260830074535 | 80 | 171 | 1.0 | 3.0 | 0.00 | 0.00 | 0.00 | 61 | 1013.4 |
| 20260830074031 | 80 | 170 | 4.0 | 5.0 | 0.00 | 0.00 | 0.00 | 60 | 1013.8 |
| 20260830073522 | 80 | 169 | 2.0 | 3.0 | 0.00 | 0.00 | 0.00 | 61 | 1013.4 |
| 20260830073016 | 80 | 167 | 3.0 | 6.0 | 0.00 | 0.00 | 0.00 | 60 | 1013.6 |
| 20260830072512 | 80 | 168 | 3.0 | 5.0 | 0.00 | 0.00 | 0.00 | 60 | 1013.6 |
| 20260830072011 | 80 | 169 | 4.0 | 5.0 | 0.00 | 0.00 | 0.00 | 60 | 1013.6 |
| 20260830071506 | 81 | 168 | 2.0 | 6.0 | 0.00 | 0.00 | 0.00 | 60 | 1013.5 |
| 20260830071004 | 81 | 165 | 3.0 | 7.0 | 0.00 | 0.00 | 0.00 | 60 | 1013.5 |
| 20260830070459 | 81 | 165 | 3.0 | 6.0 | 0.00 | 0.00 | 0.00 | 59 | 1013.6 |
| 20260830065958 | 81 | 167 | 6.0 | 9.0 | 0.00 | 0.00 | 0.00 | 58 | 1013.8 |
| 20260830065453 | 81 | 166 | 2.0 | 6.0 | 0.00 | 0.00 | 0.00 | 59 | 1013.6 |
| 20260830064951 | 81 | 167 | 2.0 | 6.0 | 0.00 | 0.00 | 0.00 | 58 | 1013.7 |
| 20260830064446 | 81 | 166 | 3.0 | 5.0 | 0.00 | 0.00 | 0.00 | 58 | 1013.8 |
| 20260830063941 | 82 | 165 | 2.0 | 9.0 | 0.00 | 0.00 | 0.00 | 58 | 1013.9 |
| 20260830063440 | 82 | 163 | 3.0 | 5.0 | 0.00 | 0.00 | 0.00 | 58 | 1013.9 |
| 20260830062940 | 82 | 171 | 3.0 | 7.0 | 0.00 | 0.00 | 0.00 | 57 | 1013.9 |
| 20260830062439 | 82 | 169 | 3.0 | 5.0 | 0.00 | 0.00 | 0.00 | 57 | 1013.9 |
| 20260830061934 | 82 | 170 | 3.0 | 8.0 | 0.00 | 0.00 | 0.00 | 57 | 1014.0 |
| 20260830061429 | 82 | 171 | 2.0 | 5.0 | 0.00 | 0.00 | 0.00 | 56 | 1013.9 |
| 20260830060926 | 82 | 166 | 1.0 | 8.0 | 0.00 | 0.00 | 0.00 | 57 | 1014.1 |
| 20260830060422 | 82 | 174 | 1.0 | 6.0 | 0.00 | 0.00 | 0.00 | 56 | 1013.9 |
| 20260830055917 | 82 | 167 | 3.0 | 6.0 | 0.00 | 0.00 | 0.00 | 56 | 1014.1 |
| 20260830055413 | 82 | 163 | 4.0 | 11.0 | 0.00 | 0.00 | 0.00 | 56 | 1013.9 |
| 20260830054908 | 82 | 168 | 3.0 | 3.0 | 0.00 | 0.00 | 0.00 | 57 | 1013.8 |
| 20260830054404 | 82 | 169 | 3.0 | 5.0 | 0.00 | 0.00 | 0.00 | 57 | 1014.0 |
| 20260830053900 | 82 | 170 | 3.0 | 5.0 | 0.00 | 0.00 | 0.00 | 57 | 1013.9 |
| 20260830053355 | 82 | 162 | 2.0 | 3.0 | 0.00 | 0.00 | 0.00 | 57 | 1013.8 |
| 20260830052854 | 82 | 170 | 2.0 | 5.0 | 0.00 | 0.00 | 0.00 | 57 | 1013.8 |
| 20260830052349 | 82 | 168 | 2.0 | 3.0 | 0.00 | 0.00 | 0.00 | 57 | 1014.0 |
| 20260830051844 | 82 | 172 | 5.0 | 7.0 | 0.00 | 0.00 | 0.00 | 57 | 1013.9 |
| 20260830051339 | 82 | 167 | 2.0 | 3.0 | 0.00 | 0.00 | 0.00 | 58 | 1013.6 |
| 20260830050833 | 82 | 168 | 2.0 | 5.0 | 0.00 | 0.00 | 0.00 | 57 | 1013.9 |
| 20260830050329 | 82 | 171 | 2.0 | 3.0 | 0.00 | 0.00 | 0.00 | 58 | 1013.7 |
| 20260830045826 | 82 | 169 | 3.0 | 5.0 | 0.00 | 0.00 | 0.00 | 57 | 1014.1 |